EHVK

Volkel Air Base Airport

Uden, The Netherlands
METAR EHVK 230806Z AUTO 05008KT 5000 BR FEW026 OVC036 M01/M03 Q1023 WHT 05008KT 4000 BR SCT040
Observed Flight Rules
Feb-23 @ 08:06 UTC (22 minutes ago) Marginal Visual Flight Rules
Wind Visibility Clouds Conditions
50° at 8 knots 5,005 meters
  • Few at 2,600' AGL
  • Overcast at 3,600' AGL
  • Scattered at 4,000' AGL
  • Mist
  • Mist
Temperatures Readings
Current -1°C / 30°F
Dewpoint -3°C / 27°F
Humidity 86%
Altimeter 30.21" Hg
Pressure 1023 hPa
Elevation 21
METAR EHVK 230806Z AUTO 05008KT 5000 BR FEW026 OVC036 M01/M03 Q1023 WHT 05008KT 4000 BR SCT040
Observed Flight Rules
Feb-23 @ 08:06 UTC
(22 minutes ago)
MVFR
Wind Visibility
50° at 8 knots 5,005 meters
Clouds
  • Few at 2,600' AGL
  • Overcast at 3,600' AGL
  • Scattered at 4,000' AGL
Conditions
  • Mist
  • Mist
Temperature Dewpoint
-1°C / 30°F -3°C / 27°F
Humidity Altimeter Pressure
86% 30.21" Hg 1023 hPa